Time;durP1;ratioP1;P1;durP2;ratioP2;P2;SDS_P1;SDS_P2;PMS_P1;PMS_P2;Temp;Humidity;BMP_temperature;BMP_pressure;BME280_temperature;BME280_humidity;BME280_pressure;Samples;Min_cycle;Max_cycle;Signal;HPM_P1;HPM_P2
2022/12/07 00:01:09;;;;;;;43.13;11.17;;;;;;;12.87;69.11;99196.94;6250256;22;20154;-89
2022/12/07 00:03:35;;;;;;;32.30;11.97;;;;;;;12.88;68.98;99185.50;6250222;22;20537;-90
2022/12/07 00:06:03;;;;;;;37.97;12.13;;;;;;;12.86;69.02;99192.66;6277358;22;20151;-90
2022/12/07 00:08:29;;;;;;;36.77;12.93;;;;;;;12.86;69.07;99192.66;6276912;22;20673;-90
2022/12/07 00:10:55;;;;;;;40.47;13.00;;;;;;;12.82;69.12;99185.88;6276928;22;20147;-90
2022/12/07 00:13:21;;;;;;;40.63;13.03;;;;;;;12.82;69.42;99188.50;6277524;22;20215;-89
2022/12/07 00:15:46;;;;;;;39.37;12.63;;;;;;;12.71;69.35;99192.72;6276874;22;20161;-90
2022/12/07 00:18:11;;;;;;;33.67;12.00;;;;;;;12.68;69.98;99187.66;6276933;22;20170;-89
2022/12/07 00:20:37;;;;;;;43.10;13.53;;;;;;;12.72;69.48;99194.41;6277553;22;20158;-90
2022/12/07 00:23:02;;;;;;;34.37;11.47;;;;;;;12.80;69.42;99192.16;6244702;23;20214;-89
2022/12/07 00:25:29;;;;;;;34.03;11.50;;;;;;;12.88;69.20;99188.13;6246857;23;20149;-89
2022/12/07 00:27:56;;;;;;;43.13;12.50;;;;;;;12.83;69.46;99187.56;6246135;22;20179;-89
2022/12/07 00:30:22;;;;;;;40.30;11.30;;;;;;;12.77;69.72;99193.19;6244923;23;20592;-89
2022/12/07 00:32:48;;;;;;;40.67;12.93;;;;;;;12.75;69.41;99188.97;6246082;22;20151;-90
2022/12/07 00:35:14;;;;;;;48.70;12.30;;;;;;;12.74;69.87;99184.63;6246165;22;20194;-89
2022/12/07 00:37:39;;;;;;;38.93;11.33;;;;;;;12.76;69.91;99183.59;6246126;23;20155;-89
2022/12/07 00:40:06;;;;;;;38.10;10.97;;;;;;;12.76;69.94;99183.59;6246361;22;20155;-89
2022/12/07 00:42:31;;;;;;;35.20;11.37;;;;;;;12.81;69.86;99189.41;6246210;22;20183;-89
2022/12/07 00:44:57;;;;;;;36.73;11.73;;;;;;;12.89;69.14;99187.16;6244781;23;20571;-89
2022/12/07 00:47:22;;;;;;;40.07;10.63;;;;;;;12.94;69.02;99185.09;6245958;22;20178;-89
2022/12/07 00:49:48;;;;;;;39.60;11.07;;;;;;;12.89;69.10;99181.09;6245955;22;20566;-89
2022/12/07 00:52:13;;;;;;;52.47;13.07;;;;;;;12.83;69.08;99179.69;6246289;22;20150;-89
2022/12/07 00:54:40;;;;;;;41.17;11.17;;;;;;;12.80;69.77;99182.50;6245982;22;20151;-89
2022/12/07 00:57:05;;;;;;;42.23;11.57;;;;;;;12.79;69.86;99186.03;6245971;22;20159;-90
2022/12/07 00:59:31;;;;;;;38.87;12.40;;;;;;;12.77;69.73;99185.28;6245922;23;20151;-90
2022/12/07 01:01:56;;;;;;;45.50;12.07;;;;;;;12.73;70.08;99189.06;6246283;22;20155;-90
2022/12/07 01:04:22;;;;;;;39.40;12.77;;;;;;;12.75;70.45;99189.81;6245820;23;20859;-90
2022/12/07 01:06:47;;;;;;;39.00;11.57;;;;;;;12.80;70.02;99187.75;6245744;23;20294;-90
2022/12/07 01:09:12;;;;;;;44.00;12.03;;;;;;;12.80;69.91;99179.00;6245765;23;20178;-89
2022/12/07 01:11:38;;;;;;;37.83;10.70;;;;;;;12.76;70.21;99186.22;6244679;23;20224;-89
2022/12/07 01:14:03;;;;;;;42.20;12.80;;;;;;;12.76;70.51;99180.97;6244588;23;20163;-90
2022/12/07 01:16:30;;;;;;;48.53;12.97;;;;;;;12.74;70.41;99180.22;6246105;23;20222;-89
2022/12/07 01:18:57;;;;;;;41.80;12.90;;;;;;;12.69;70.75;99177.03;6245721;23;20152;-89
2022/12/07 01:21:28;;;;;;;36.10;11.53;;;;;;;12.69;70.88;99174.41;6245888;22;20205;-89
2022/12/07 01:23:54;;;;;;;34.73;13.73;;;;;;;12.75;70.68;99174.03;6244515;23;20173;-90
2022/12/07 01:26:22;;;;;;;43.60;11.33;;;;;;;12.77;70.57;99171.28;6245952;22;20148;-89
2022/12/07 01:28:48;;;;;;;37.60;12.60;;;;;;;12.76;70.44;99165.19;6245810;22;20221;-89
2022/12/07 01:31:16;;;;;;;46.80;12.80;;;;;;;12.71;70.42;99167.25;6245996;22;20162;-89
2022/12/07 01:33:47;;;;;;;44.87;13.37;;;;;;;12.65;70.55;99161.53;6246063;22;20152;-89
2022/12/07 01:36:17;;;;;;;39.90;12.13;;;;;;;12.65;70.72;99157.13;6244453;23;20589;-90
2022/12/07 01:38:44;;;;;;;46.60;12.57;;;;;;;12.70;70.99;99154.22;6245665;22;20209;-89
2022/12/07 01:41:10;;;;;;;46.70;11.80;;;;;;;12.71;70.48;99151.47;6245629;22;20176;-88
2022/12/07 01:43:36;;;;;;;43.73;11.93;;;;;;;12.76;70.93;99154.66;6245609;22;20187;-89
2022/12/07 01:46:03;;;;;;;39.27;12.43;;;;;;;12.84;70.40;99155.03;6246391;22;20160;-89
2022/12/07 01:48:41;;;;;;;40.83;13.37;;;;;;;12.90;70.35;99162.56;6245558;22;20250;-89
2022/12/07 01:51:13;;;;;;;44.83;11.07;;;;;;;12.89;70.19;99149.53;6246330;22;20139;-90
2022/12/07 01:53:44;;;;;;;38.63;12.30;;;;;;;12.83;70.26;99150.75;6246275;22;20135;-90
2022/12/07 01:56:14;;;;;;;47.57;12.20;;;;;;;12.78;70.57;99142.28;6244453;23;20558;-90
2022/12/07 01:58:40;;;;;;;46.43;12.47;;;;;;;12.77;70.53;99145.84;6245649;22;20138;-90
2022/12/07 02:01:05;;;;;;;48.43;12.87;;;;;;;12.79;70.39;99143.97;6245526;23;20169;-89
2022/12/07 02:03:37;;;;;;;48.43;13.37;;;;;;;12.79;70.36;99138.69;6245870;22;20147;-90
2022/12/07 02:06:05;;;;;;;43.37;12.93;;;;;;;12.78;70.55;99134.41;6245562;22;20198;-89
2022/12/07 02:08:32;;;;;;;45.00;11.90;;;;;;;12.78;70.96;99139.66;6245805;22;20183;-89
2022/12/07 02:10:57;;;;;;;49.37;13.00;;;;;;;12.80;70.94;99137.78;6246290;22;20148;-89
2022/12/07 02:13:26;;;;;;;39.30;12.43;;;;;;;12.82;70.54;99133.25;6245477;22;20166;-89
2022/12/07 02:16:00;;;;;;;45.63;14.00;;;;;;;12.86;70.35;99136.56;6245547;22;20623;-89
2022/12/07 02:18:49;;;;;;;45.83;13.30;;;;;;;12.81;70.15;99125.47;6245441;23;20196;-89
2022/12/07 02:21:33;;;;;;;58.83;13.97;;;;;;;12.68;70.49;99130.63;6229896;23;20156;-89
2022/12/07 02:24:19;;;;;;;45.97;14.80;;;;;;;12.56;71.27;99127.88;6273649;22;20163;-89
2022/12/07 02:27:25;;;;;;;39.07;13.20;;;;;;;12.55;71.37;99129.66;6276302;22;20182;-90
2022/12/07 02:29:53;;;;;;;43.33;11.53;;;;;;;12.62;71.62;99130.16;6128802;23;20167;-89
2022/12/07 02:32:25;;;;;;;48.97;13.67;;;;;;;12.63;71.32;99124.78;6252501;22;20213;-90
2022/12/07 02:35:17;;;;;;;50.17;13.10;;;;;;;12.64;71.29;99113.34;6249270;22;20156;-90
2022/12/07 02:37:55;;;;;;;55.77;13.50;;;;;;;12.60;71.21;99117.13;6276761;22;20131;-90
2022/12/07 02:40:31;;;;;;;48.53;14.37;;;;;;;12.59;71.39;99114.56;6249349;22;20207;-89
2022/12/07 02:43:08;;;;;;;42.43;13.80;;;;;;;12.60;71.33;99105.75;6276678;22;20551;-90
2022/12/07 02:45:37;;;;;;;46.20;13.47;;;;;;;12.61;71.74;99116.16;6276648;22;20150;-89
2022/12/07 02:48:04;;;;;;;41.60;13.77;;;;;;;12.63;71.69;99114.28;6277661;22;20179;-89
2022/12/07 02:50:29;;;;;;;49.70;14.10;;;;;;;12.62;71.42;99109.97;6278102;22;20161;-89
2022/12/07 02:52:55;;;;;;;37.97;11.43;;;;;;;12.69;71.63;99113.06;6277689;22;20151;-89
2022/12/07 02:55:28;;;;;;;43.57;13.07;;;;;;;12.74;71.16;99108.34;6251006;22;20151;-89
2022/12/07 02:58:16;;;;;;;42.30;12.87;;;;;;;12.73;70.92;99104.91;6250985;22;20217;-89
2022/12/07 03:01:01;;;;;;;36.60;13.37;;;;;;;12.74;71.06;99105.72;6250481;22;20561;-89
2022/12/07 03:03:28;;;;;;;35.47;12.73;;;;;;;12.74;71.20;99114.47;6277992;22;20144;-89
2022/12/07 03:06:15;;;;;;;53.83;12.20;;;;;;;12.70;71.51;99117.38;6250755;22;20469;-89
2022/12/07 03:08:53;;;;;;;42.20;13.20;;;;;;;12.72;71.43;99115.50;6278342;22;20542;-90
2022/12/07 03:11:43;;;;;;;43.57;12.77;;;;;;;12.78;71.51;99110.72;6277974;22;20174;-89
2022/12/07 03:14:55;;;;;;;33.07;12.43;;;;;;;12.80;71.04;99103.56;6277911;22;20454;-89
2022/12/07 03:17:30;;;;;;;42.10;11.80;;;;;;;12.82;70.85;99112.22;6162597;22;20231;-90
2022/12/07 03:19:59;;;;;;;39.90;12.90;;;;;;;12.75;71.07;99110.91;6250800;22;20589;-90
2022/12/07 03:22:29;;;;;;;41.50;13.17;;;;;;;12.74;70.87;99117.09;6277399;22;20598;-89
2022/12/07 03:24:58;;;;;;;50.27;13.67;;;;;;;12.74;70.99;99119.72;6251321;22;20156;-90
2022/12/07 03:27:45;;;;;;;42.50;12.93;;;;;;;12.78;71.17;99104.63;6277636;22;20511;-90
2022/12/07 03:30:29;;;;;;;37.60;11.53;;;;;;;12.81;71.04;99112.31;6278219;22;20150;-89
2022/12/07 03:33:23;;;;;;;49.63;13.80;;;;;;;12.78;71.00;99112.50;6278083;22;20131;-89
2022/12/07 03:35:59;;;;;;;45.30;13.00;;;;;;;12.59;71.35;99110.16;6250694;22;20146;-90
2022/12/07 03:38:40;;;;;;;38.97;13.17;;;;;;;12.52;71.84;99118.50;6250694;22;20534;-90
2022/12/07 03:41:11;;;;;;;42.50;14.37;;;;;;;12.54;71.65;99109.59;6277656;22;20140;-89
2022/12/07 03:43:38;;;;;;;45.67;12.87;;;;;;;12.60;71.92;99101.34;6277214;22;20223;-89
2022/12/07 03:46:32;;;;;;;43.87;12.50;;;;;;;12.61;71.66;99102.16;6250848;22;20571;-90
2022/12/07 03:49:10;;;;;;;41.03;12.97;;;;;;;12.60;71.98;99100.50;6277928;22;20142;-89
2022/12/07 03:51:49;;;;;;;33.97;12.27;;;;;;;12.59;71.60;99094.38;6277158;22;20139;-90
2022/12/07 03:54:23;;;;;;;49.00;12.50;;;;;;;12.63;71.71;99095.88;6277806;22;20132;-89
2022/12/07 03:56:50;;;;;;;44.33;12.07;;;;;;;12.66;71.70;99100.94;6250131;22;20592;-89
2022/12/07 03:59:17;;;;;;;42.57;12.47;;;;;;;12.72;71.25;99107.63;6277041;22;20484;-89
2022/12/07 04:01:44;;;;;;;51.67;13.63;;;;;;;12.70;71.57;99099.84;6277000;22;20151;-89
2022/12/07 04:04:10;;;;;;;42.03;13.20;;;;;;;12.68;71.57;99098.25;6277070;22;20222;-90
2022/12/07 04:06:36;;;;;;;39.83;12.70;;;;;;;12.70;71.42;99097.19;6250193;22;20186;-90
2022/12/07 04:09:01;;;;;;;46.33;13.37;;;;;;;12.74;71.66;99101.31;6277689;22;20151;-89
2022/12/07 04:11:27;;;;;;;54.63;15.40;;;;;;;12.73;71.42;99091.75;6250282;22;20227;-89
2022/12/07 04:16:36;;;;;;;38.03;12.03;;;;;;;12.68;70.99;99099.06;6277406;22;20587;-89
2022/12/07 04:19:01;;;;;;;57.10;14.70;;;;;;;12.59;71.30;99093.53;6276865;22;20221;-89
2022/12/07 04:21:27;;;;;;;34.63;10.57;;;;;;;12.46;71.68;99101.31;6276936;22;20162;-89
2022/12/07 04:23:52;;;;;;;44.90;11.80;;;;;;;12.42;71.82;99102.44;6276769;22;20171;-89
2022/12/07 04:26:18;;;;;;;45.97;14.27;;;;;;;12.48;71.93;99104.69;6276756;22;20148;-89
2022/12/07 04:28:43;;;;;;;46.33;12.97;;;;;;;12.56;71.38;99091.09;6276898;22;20228;-90
2022/12/07 04:31:09;;;;;;;43.93;12.50;;;;;;;12.57;71.29;99093.63;6250231;22;20158;-89
2022/12/07 04:33:36;;;;;;;44.73;12.27;;;;;;;12.59;71.25;99101.41;6277109;22;20148;-89
2022/12/07 04:36:01;;;;;;;44.83;13.30;;;;;;;12.62;71.60;99096.81;6250017;22;20234;-89
2022/12/07 04:38:27;;;;;;;45.03;11.80;;;;;;;12.62;71.04;99088.94;6276772;22;20175;-89
2022/12/07 04:40:52;;;;;;;42.03;11.90;;;;;;;12.63;71.00;99093.22;6276961;22;20613;-89
2022/12/07 04:43:18;;;;;;;36.07;11.03;;;;;;;12.64;70.86;99094.09;6249916;22;20179;-89
2022/12/07 04:45:47;;;;;;;51.77;13.23;;;;;;;12.57;70.85;99091.00;6249931;22;20155;-89
2022/12/07 04:48:13;;;;;;;51.90;13.70;;;;;;;12.56;70.90;99091.94;6276556;22;20201;-89
2022/12/07 04:50:38;;;;;;;46.93;11.63;;;;;;;12.48;70.85;99085.44;6276548;22;20583;-90
2022/12/07 04:53:04;;;;;;;37.97;11.50;;;;;;;12.50;71.33;99092.28;6276524;22;20449;-90
2022/12/07 04:55:29;;;;;;;45.37;12.93;;;;;;;12.51;71.01;99086.13;6249840;22;20165;-89
2022/12/07 04:57:55;;;;;;;45.17;12.73;;;;;;;12.51;70.79;99085.25;6276603;22;20147;-89
2022/12/07 05:00:20;;;;;;;37.50;12.73;;;;;;;12.51;70.73;99088.75;6249825;22;20175;-90
2022/12/07 05:02:45;;;;;;;58.67;14.53;;;;;;;12.48;70.98;99091.56;6276583;22;20149;-89
2022/12/07 05:05:11;;;;;;;48.63;12.30;;;;;;;12.45;70.59;99091.72;6276502;22;20504;-90
2022/12/07 05:07:36;;;;;;;43.80;12.67;;;;;;;12.48;70.43;99091.56;6276329;22;20178;-89
2022/12/07 05:10:02;;;;;;;47.43;13.03;;;;;;;12.46;70.88;99098.69;6276616;22;20162;-89
2022/12/07 05:12:28;;;;;;;46.40;12.93;;;;;;;12.44;70.86;99099.72;6276503;22;20154;-89
2022/12/07 05:14:53;;;;;;;45.03;13.33;;;;;;;12.41;70.91;99103.38;6276500;22;20467;-90
2022/12/07 05:17:18;;;;;;;45.80;12.17;;;;;;;12.39;71.31;99101.78;6276429;22;20158;-90
2022/12/07 05:19:44;;;;;;;40.20;12.43;;;;;;;12.36;70.94;99105.44;6249699;22;20160;-89
2022/12/07 05:22:10;;;;;;;41.53;13.47;;;;;;;12.39;71.15;99097.38;6249462;22;20198;-89
2022/12/07 05:24:35;;;;;;;42.17;12.97;;;;;;;12.46;70.91;99097.84;6249753;22;20158;-90
2022/12/07 05:27:01;;;;;;;32.83;11.80;;;;;;;12.45;71.02;99097.00;6249578;22;20199;-90
2022/12/07 05:29:26;;;;;;;44.00;13.23;;;;;;;12.45;70.23;99090.91;6249624;22;20165;-89
2022/12/07 05:31:52;;;;;;;43.17;13.03;;;;;;;12.36;70.39;99089.69;6276332;22;20217;-90
2022/12/07 05:34:17;;;;;;;35.30;11.60;;;;;;;12.28;70.08;99092.78;6276933;22;20221;-90
2022/12/07 05:36:43;;;;;;;43.80;12.87;;;;;;;12.23;70.41;99100.09;6276368;22;20147;-89
2022/12/07 05:39:08;;;;;;;44.30;12.57;;;;;;;12.24;70.13;99087.78;6276948;22;20219;-90
2022/12/07 05:44:18;;;;;;;33.60;11.43;;;;;;;12.12;70.17;99093.78;6276262;22;20595;-89
2022/12/07 05:46:43;;;;;;;39.40;11.27;;;;;;;12.04;70.15;99085.50;6276162;22;20176;-89
2022/12/07 05:49:09;;;;;;;31.50;11.93;;;;;;;12.01;69.92;99093.56;6276253;22;20534;-89
2022/12/07 05:51:34;;;;;;;36.40;12.30;;;;;;;12.00;70.00;99091.88;6249549;22;20588;-90
2022/12/07 05:54:00;;;;;;;41.00;10.43;;;;;;;12.00;70.63;99094.50;6249580;22;20654;-89
2022/12/07 05:56:26;;;;;;;26.90;10.43;;;;;;;11.99;70.11;99096.28;6276552;22;20146;-90
2022/12/07 06:01:35;;;;;;;30.57;12.10;;;;;;;12.01;70.26;99097.03;6276535;22;20152;-90
2022/12/07 06:04:01;;;;;;;27.30;11.40;;;;;;;12.07;70.01;99096.69;6249445;22;20150;-90
2022/12/07 06:06:26;;;;;;;45.67;11.93;;;;;;;12.15;70.03;99099.69;6276074;22;20319;-89
2022/12/07 06:08:52;;;;;;;32.53;10.33;;;;;;;12.17;69.43;99110.09;6276588;22;20229;-89
2022/12/07 06:14:01;;;;;;;35.37;11.40;;;;;;;12.15;69.35;99109.38;6276567;22;20141;-89
2022/12/07 06:16:27;;;;;;;38.83;13.93;;;;;;;12.17;69.36;99108.31;6276100;22;20149;-89
2022/12/07 06:18:52;;;;;;;29.00;11.13;;;;;;;12.16;69.61;99105.78;6276436;22;20150;-89
2022/12/07 06:21:18;;;;;;;35.37;11.00;;;;;;;12.18;69.92;99115.28;6277873;22;20600;-89
2022/12/07 06:23:43;;;;;;;31.57;10.60;;;;;;;12.22;70.22;99121.19;6246099;23;20261;-89
2022/12/07 06:26:08;;;;;;;34.60;11.93;;;;;;;12.29;70.18;99114.63;6248064;22;20150;-89
2022/12/07 06:28:34;;;;;;;33.33;11.17;;;;;;;12.33;70.52;99110.88;6246175;23;20197;-91
2022/12/07 06:31:01;;;;;;;40.33;15.63;;;;;;;12.36;70.75;99105.44;6247442;22;20611;-91
2022/12/07 06:33:27;;;;;;;31.67;13.87;;;;;;;12.44;70.65;99100.59;6247499;22;20197;-91
2022/12/07 06:35:52;;;;;;;39.83;12.40;;;;;;;12.50;70.41;99104.63;6246306;23;20464;-91
2022/12/07 06:38:18;;;;;;;25.70;10.33;;;;;;;12.52;70.81;99097.47;6247408;22;20520;-91
2022/12/07 06:40:43;;;;;;;29.13;11.03;;;;;;;12.55;70.49;99103.38;6247726;22;20147;-90
2022/12/07 06:43:09;;;;;;;27.13;10.10;;;;;;;12.65;70.26;99099.28;6248029;22;20147;-90
2022/12/07 06:45:34;;;;;;;33.33;10.50;;;;;;;12.73;70.02;99104.06;6247559;22;20579;-91
2022/12/07 06:48:00;;;;;;;29.73;10.40;;;;;;;12.73;69.49;99106.69;6247208;22;20179;-90
2022/12/07 06:50:25;;;;;;;29.63;11.87;;;;;;;12.77;69.75;99114.28;6246068;23;20152;-90
2022/12/07 06:52:52;;;;;;;37.97;14.33;;;;;;;12.82;69.26;99117.47;6247162;22;20147;-90
2022/12/07 06:55:18;;;;;;;30.87;12.40;;;;;;;12.79;69.64;99115.03;6245877;23;20239;-90
2022/12/07 06:57:43;;;;;;;30.77;11.70;;;;;;;12.83;69.70;99111.28;6247445;22;20190;-90
2022/12/07 07:00:09;;;;;;;32.13;11.97;;;;;;;12.82;69.42;99116.63;6245920;23;20155;-90
2022/12/07 07:02:35;;;;;;;29.23;12.23;;;;;;;12.84;69.42;99120.84;6245946;23;20152;-91
2022/12/07 07:05:01;;;;;;;36.13;12.77;;;;;;;12.90;69.51;99117.00;6247404;22;20151;-90
2022/12/07 07:07:26;;;;;;;35.00;15.13;;;;;;;12.86;69.31;99113.72;6246794;23;20252;-91
2022/12/07 07:09:52;;;;;;;49.60;14.93;;;;;;;12.87;68.90;99123.28;6247139;22;20176;-90
2022/12/07 07:12:17;;;;;;;55.87;20.90;;;;;;;12.89;68.99;99124.03;6247003;23;20156;-90
2022/12/07 07:14:43;;;;;;;61.80;21.57;;;;;;;12.95;69.37;99128.06;6247274;22;20157;-88
2022/12/07 07:17:08;;;;;;;53.27;19.33;;;;;;;12.89;69.56;99118.78;6245786;23;20156;-90
2022/12/07 07:19:34;;;;;;;45.63;17.27;;;;;;;12.96;69.31;99119.25;6246974;22;20215;-91
2022/12/07 07:21:59;;;;;;;46.27;16.83;;;;;;;12.91;69.28;99116.91;6248418;22;20537;-91
2022/12/07 07:24:25;;;;;;;38.73;15.93;;;;;;;12.91;69.04;99121.31;6278191;22;20218;-90
2022/12/07 07:26:50;;;;;;;41.50;16.00;;;;;;;12.94;68.94;99115.88;6277758;22;20685;-90
2022/12/07 07:29:16;;;;;;;53.63;18.03;;;;;;;12.92;68.94;99113.31;6277476;22;20443;-90
2022/12/07 07:31:41;;;;;;;55.30;18.20;;;;;;;12.99;69.25;99113.81;6277278;22;20162;-91
2022/12/07 07:34:07;;;;;;;48.07;18.03;;;;;;;13.07;69.42;99106.31;6278004;22;20159;-91
2022/12/07 07:36:32;;;;;;;53.20;17.77;;;;;;;13.04;69.26;99102.97;6277768;22;20213;-90
2022/12/07 07:38:58;;;;;;;50.57;19.23;;;;;;;13.05;69.82;99097.59;6250577;22;20160;-90
2022/12/07 07:41:23;;;;;;;50.40;19.73;;;;;;;13.18;69.74;99095.91;6277338;22;20172;-90
2022/12/07 07:43:49;;;;;;;47.90;18.93;;;;;;;13.26;69.47;99116.50;6250612;22;20155;-90
2022/12/07 07:46:14;;;;;;;53.67;21.47;;;;;;;13.33;69.59;99117.81;6277362;22;20575;-89
2022/12/07 07:48:40;;;;;;;53.37;18.13;;;;;;;13.38;69.41;99116.56;6277591;22;20615;-91
2022/12/07 07:51:07;;;;;;;60.57;20.70;;;;;;;13.39;69.12;99117.44;6277289;22;20587;-90
2022/12/07 07:53:32;;;;;;;60.23;19.30;;;;;;;13.49;69.59;99119.34;6277587;22;20144;-90
2022/12/07 07:55:58;;;;;;;58.00;19.63;;;;;;;13.59;69.18;99114.34;6277656;22;20186;-90
2022/12/07 07:58:24;;;;;;;60.00;19.70;;;;;;;13.67;68.75;99111.19;6277972;22;20464;-90
2022/12/07 08:00:49;;;;;;;67.83;22.37;;;;;;;13.59;68.22;99105.59;6277213;22;20619;-90
2022/12/07 08:03:15;;;;;;;56.23;17.50;;;;;;;13.62;68.63;99108.88;6277501;22;20226;-91
2022/12/07 08:05:40;;;;;;;58.23;20.30;;;;;;;13.60;68.21;99112.56;6277146;22;20149;-91
2022/12/07 08:08:06;;;;;;;59.03;18.27;;;;;;;13.21;68.71;99121.19;6277077;22;20186;-91
2022/12/07 08:10:32;;;;;;;51.33;19.23;;;;;;;13.35;68.83;99123.81;6277116;22;20144;-90
2022/12/07 08:13:13;;;;;;;50.40;17.30;;;;;;;13.51;68.15;99114.84;6277379;22;20149;-90
2022/12/07 08:15:45;;;;;;;58.73;20.60;;;;;;;13.55;68.11;99118.94;6250470;22;20223;-92
2022/12/07 08:18:12;;;;;;;53.47;18.93;;;;;;;13.64;68.70;99120.16;6277744;22;20144;-90
2022/12/07 08:20:39;;;;;;;51.77;17.47;;;;;;;13.85;68.08;99116.09;6277004;22;20477;-91
2022/12/07 08:23:06;;;;;;;57.23;18.83;;;;;;;14.09;67.49;99114.47;6276796;22;20164;-91
2022/12/07 08:25:32;;;;;;;48.23;17.33;;;;;;;14.25;66.93;99105.53;6277292;22;20221;-91
2022/12/07 08:28:00;;;;;;;48.70;18.07;;;;;;;14.38;66.32;99111.69;6276903;22;20662;-90
2022/12/07 08:30:26;;;;;;;52.23;17.97;;;;;;;14.45;65.85;99108.53;6276950;22;20149;-90
2022/12/07 08:32:51;;;;;;;54.07;16.93;;;;;;;14.52;66.12;99109.78;6276883;22;20175;-91
2022/12/07 08:35:17;;;;;;;43.17;16.87;;;;;;;14.35;64.48;99117.16;6276915;22;20174;-91
2022/12/07 08:37:42;;;;;;;48.43;17.03;;;;;;;14.31;63.75;99119.16;6250089;22;20151;-91
2022/12/07 08:40:10;;;;;;;56.10;17.13;;;;;;;14.46;64.17;99106.72;6276803;22;20149;-91
2022/12/07 08:42:39;;;;;;;50.23;15.80;;;;;;;14.55;64.46;99111.34;6276776;22;20149;-91
2022/12/07 08:45:14;;;;;;;43.00;14.43;;;;;;;14.53;64.00;99108.84;6250138;22;20477;-91
2022/12/07 08:47:48;;;;;;;44.90;16.43;;;;;;;14.59;64.02;99102.28;6250082;22;20186;-91
2022/12/07 08:50:14;;;;;;;57.13;20.57;;;;;;;14.55;63.45;99106.09;6277624;22;20462;-91
2022/12/07 08:52:41;;;;;;;44.63;17.53;;;;;;;14.56;63.92;99095.44;6277089;22;20191;-90
2022/12/07 08:55:10;;;;;;;47.33;15.90;;;;;;;14.62;64.13;99091.53;6276652;22;20193;-89
2022/12/07 08:57:36;;;;;;;39.53;15.37;;;;;;;14.63;63.65;99088.78;6276909;22;20195;-89
2022/12/07 09:00:04;;;;;;;40.30;15.77;;;;;;;14.67;63.84;99089.41;6250550;22;20158;-90
2022/12/07 09:02:31;;;;;;;46.57;18.27;;;;;;;14.64;63.77;99084.34;6276777;22;20153;-90
2022/12/07 09:04:56;;;;;;;44.67;15.47;;;;;;;14.74;63.62;99077.47;6250063;22;20153;-90
2022/12/07 09:07:22;;;;;;;48.07;15.43;;;;;;;14.84;63.50;99075.88;6249771;22;20574;-90
2022/12/07 09:09:48;;;;;;;49.03;15.83;;;;;;;14.93;63.02;99072.59;6276526;22;20179;-91
2022/12/07 09:12:13;;;;;;;41.00;15.23;;;;;;;14.92;61.47;99068.25;6276564;22;20155;-90
2022/12/07 09:14:39;;;;;;;39.10;15.43;;;;;;;14.98;61.96;99075.75;6250240;22;20169;-90
2022/12/07 09:17:07;;;;;;;42.00;15.60;;;;;;;14.97;61.90;99076.69;6276842;22;20547;-89
2022/12/07 09:19:32;;;;;;;38.80;15.10;;;;;;;15.05;61.85;99068.22;6276782;22;20160;-90
2022/12/07 09:21:57;;;;;;;47.50;15.53;;;;;;;15.05;61.89;99061.16;6276539;22;20165;-90
2022/12/07 09:24:23;;;;;;;33.00;13.83;;;;;;;15.05;61.37;99052.38;6249705;22;20147;-89
2022/12/07 09:26:49;;;;;;;45.07;15.60;;;;;;;14.97;61.07;99050.28;6276269;22;20515;-90
2022/12/07 09:29:14;;;;;;;42.40;14.83;;;;;;;14.92;60.93;99047.16;6250052;22;20567;-90
2022/12/07 09:31:40;;;;;;;37.57;13.47;;;;;;;14.98;61.07;99059.06;6250309;22;20150;-90
2022/12/07 09:34:06;;;;;;;37.23;13.77;;;;;;;15.02;61.27;99044.69;6276363;22;20189;-89
2022/12/07 09:36:33;;;;;;;36.70;13.53;;;;;;;15.04;60.97;99040.97;6276375;22;20148;-89
2022/12/07 09:38:59;;;;;;;42.40;13.70;;;;;;;14.98;61.38;99035.31;6276359;22;20188;-89
2022/12/07 09:41:26;;;;;;;38.67;14.47;;;;;;;15.15;61.75;99034.91;6276290;22;20148;-90
2022/12/07 09:43:57;;;;;;;28.43;12.37;;;;;;;15.15;60.22;99033.13;6276633;22;20146;-89
2022/12/07 09:46:23;;;;;;;26.03;10.40;;;;;;;15.28;60.44;99028.63;6277036;22;20166;-89
2022/12/07 09:48:50;;;;;;;25.33;10.53;;;;;;;15.50;60.05;99033.22;6276294;22;20611;-89
2022/12/07 09:51:23;;;;;;;34.80;11.93;;;;;;;15.67;59.21;99034.63;6249509;22;20155;-88
2022/12/07 09:53:50;;;;;;;21.80;9.33;;;;;;;15.81;57.63;99029.09;6276940;22;20150;-89
2022/12/07 09:56:18;;;;;;;27.43;7.97;;;;;;;15.93;56.10;99030.84;6278118;22;20155;-89
2022/12/07 09:58:46;;;;;;;29.33;9.63;;;;;;;15.90;56.43;99025.78;6277394;22;20174;-89
2022/12/07 10:01:20;;;;;;;33.03;10.07;;;;;;;15.79;56.69;99026.59;6278033;22;20167;-89
2022/12/07 10:03:55;;;;;;;25.73;11.37;;;;;;;15.55;57.87;99020.50;6251366;22;20451;-90
2022/12/07 10:06:23;;;;;;;28.73;12.37;;;;;;;15.38;58.73;99013.78;6278503;22;20136;-90
2022/12/07 10:08:50;;;;;;;27.43;10.47;;;;;;;15.66;58.89;99006.50;6251390;22;20198;-90
2022/12/07 10:11:17;;;;;;;26.40;10.53;;;;;;;15.94;58.11;99014.00;6278332;22;20159;-90
2022/12/07 10:13:52;;;;;;;29.50;11.60;;;;;;;16.10;57.81;99009.22;6277939;22;20579;-90
2022/12/07 10:16:38;;;;;;;39.53;11.23;;;;;;;16.08;57.31;99007.66;6226338;22;20544;-91
2022/12/07 10:19:33;;;;;;;27.63;11.00;;;;;;;16.04;57.09;98996.47;6278996;22;20544;-91
2022/12/07 10:22:07;;;;;;;31.27;11.50;;;;;;;16.28;57.85;98994.59;6275528;22;20129;-91
2022/12/07 10:24:32;;;;;;;28.70;11.80;;;;;;;16.39;57.10;98991.94;6220956;23;20168;-90
2022/12/07 10:26:59;;;;;;;34.40;12.47;;;;;;;16.34;57.10;98994.13;6247690;23;20185;-90
2022/12/07 10:29:39;;;;;;;37.77;12.30;;;;;;;16.43;57.29;98996.03;6247844;23;20153;-90
2022/12/07 10:32:17;;;;;;;21.20;9.33;;;;;;;16.41;56.58;98979.44;6221644;23;20136;-91
2022/12/07 10:34:44;;;;;;;30.20;9.77;;;;;;;16.52;56.05;98975.94;6247331;23;20148;-90
2022/12/07 10:37:21;;;;;;;25.63;9.50;;;;;;;16.61;55.50;98975.25;6221336;23;20148;-91
2022/12/07 10:39:56;;;;;;;34.10;10.20;;;;;;;16.66;55.56;98974.88;6220903;23;20466;-90
2022/12/07 10:42:32;;;;;;;32.07;10.43;;;;;;;16.56;54.97;98967.66;6220508;23;20157;-90
2022/12/07 10:45:15;;;;;;;28.40;10.83;;;;;;;16.64;54.45;98975.00;6195954;23;20160;-90
2022/12/07 10:48:17;;;;;;;29.17;11.40;;;;;;;16.67;54.76;98973.91;6220503;23;20625;-90
2022/12/07 10:50:55;;;;;;;22.33;9.23;;;;;;;16.63;54.86;98973.31;6169957;23;20644;-90
2022/12/07 10:53:42;;;;;;;27.97;9.30;;;;;;;16.81;55.46;98966.56;6247152;23;20136;-89
2022/12/07 10:56:37;;;;;;;29.10;10.03;;;;;;;16.92;54.46;98978.91;6247781;23;20137;-90
2022/12/07 10:59:15;;;;;;;24.53;8.57;;;;;;;16.95;54.15;98968.09;6220685;23;20153;-90
2022/12/07 11:02:02;;;;;;;28.03;9.33;;;;;;;17.06;52.83;98965.38;6247137;23;20172;-90
2022/12/07 11:04:33;;;;;;;28.10;10.13;;;;;;;17.13;52.85;98964.78;6247750;23;20137;-91
2022/12/07 11:07:26;;;;;;;26.00;10.53;;;;;;;17.18;52.83;98957.31;6219812;23;20521;-90
2022/12/07 11:09:58;;;;;;;26.13;10.00;;;;;;;17.26;52.94;98959.31;6247027;23;20133;-91
2022/12/07 11:12:51;;;;;;;28.13;10.07;;;;;;;17.38;51.22;98955.63;6220465;23;20141;-90
2022/12/07 11:15:40;;;;;;;30.93;8.60;;;;;;;17.38;51.64;98954.78;6247296;23;20195;-91
2022/12/07 11:18:41;;;;;;;25.03;8.93;;;;;;;17.33;52.17;98946.38;6247974;23;20129;-90
2022/12/07 11:21:52;;;;;;;23.57;8.23;;;;;;;17.30;52.99;98939.53;6221252;23;20143;-90
2022/12/07 11:24:32;;;;;;;24.63;9.70;;;;;;;17.22;52.72;98939.31;6215897;23;20248;-90
2022/12/07 11:27:20;;;;;;;25.17;10.67;;;;;;;17.26;52.48;98937.28;6220568;23;20176;-90
2022/12/07 11:30:20;;;;;;;30.07;8.60;;;;;;;17.01;52.83;98941.94;6247222;23;20137;-91
2022/12/07 11:32:46;;;;;;;22.97;8.50;;;;;;;17.01;53.04;98936.63;6220745;23;20141;-91
2022/12/07 11:35:28;;;;;;;32.47;9.17;;;;;;;16.69;53.67;98934.94;6246735;23;20224;-90
2022/12/07 11:38:01;;;;;;;21.83;7.83;;;;;;;16.71;53.99;98933.00;6220197;23;20184;-90
2022/12/07 11:40:30;;;;;;;18.23;7.03;;;;;;;16.64;54.26;98934.47;6221207;23;20149;-91